East Wenona, Illinois
Current Conditions -  °F | °C
As of 12:15 AM on Tuesday 21 Oct 2014 (Local Time) from KC75 Reporting Station
Clear Clear  
Wind Chill: 40°   Ceiling: Unl
Heat Index: 40°   Visibility: 10mi
Dew Point: 38°   Wind: 0mph
Humidity: 91%   Direction: NA
Pressure: 30.02"   Gusts: NA
Location:  41.0632°N, 89.0208°W
Report Text: KC75 210515Z AUTO 00000KT 10SM CLR 05/03 A3002 RMK AO2 T00470033
Loading
Personal Weather Stations






























Interactive Weather Map New forecast layout! Learn more

10-Day Weather Forecast

Advertisements
Track Severe Weather on mobile